Time;durP1;ratioP1;P1;durP2;ratioP2;P2;SDS_P1;SDS_P2;PMS_P1;PMS_P2;Temp;Humidity;BMP_temperature;BMP_pressure;BME280_temperature;BME280_humidity;BME280_pressure;Samples;Min_cycle;Max_cycle;Signal;HPM_P1;HPM_P2
2023/07/15 00:01:28;;;;;;;7.93;4.55;;;;;;;;;;5038372;28;20035;-81
2023/07/15 00:03:54;;;;;;;7.72;5.05;;;;;;;;;;5032566;28;20033;-81
2023/07/15 00:06:23;;;;;;;6.80;4.82;;;;;;;;;;5023890;28;20058;-81
2023/07/15 00:08:49;;;;;;;6.72;5.15;;;;;;;;;;5057430;28;20013;-82
2023/07/15 00:11:15;;;;;;;6.03;4.90;;;;;;;;;;5024215;28;20025;-82
2023/07/15 00:13:41;;;;;;;6.63;5.32;;;;;;;;;;5016404;28;20025;-83
2023/07/15 00:16:08;;;;;;;16.13;4.95;;;;;;;;;;5023276;28;20029;-81
2023/07/15 00:18:33;;;;;;;6.00;5.30;;;;;;;;;;5023347;28;20065;-80
2023/07/15 00:20:59;;;;;;;6.60;5.25;;;;;;;;;;5022928;28;20076;-81
2023/07/15 00:23:25;;;;;;;9.70;5.53;;;;;;;;;;5022880;28;20027;-81
2023/07/15 00:25:51;;;;;;;10.95;5.20;;;;;;;;;;5023337;28;20032;-83
2023/07/15 00:28:20;;;;;;;10.45;5.80;;;;;;;;;;5039182;28;20029;-82
2023/07/15 00:30:53;;;;;;;12.55;5.50;;;;;;;;;;5022754;28;20025;-82
2023/07/15 00:33:19;;;;;;;8.70;5.47;;;;;;;;;;5039349;28;20025;-82
2023/07/15 00:35:45;;;;;;;6.78;5.40;;;;;;;;;;5023146;28;20021;-82
2023/07/15 00:38:11;;;;;;;8.30;5.70;;;;;;;;;;5022697;28;20106;-82
2023/07/15 00:40:42;;;;;;;7.57;5.75;;;;;;;;;;5006479;28;20037;-81
2023/07/15 00:43:45;;;;;;;5.35;4.85;;;;;;;;;;5038837;28;20018;-80
2023/07/15 00:46:19;;;;;;;7.68;5.53;;;;;;;;;;5040286;28;20037;-81
2023/07/15 00:49:02;;;;;;;9.73;5.63;;;;;;;;;;5040577;28;20025;-80
2023/07/15 00:51:29;;;;;;;6.35;5.53;;;;;;;;;;5038928;28;20033;-81
2023/07/15 00:53:55;;;;;;;9.55;5.60;;;;;;;;;;5006584;28;20064;-81
2023/07/15 00:56:21;;;;;;;11.30;6.15;;;;;;;;;;5022244;28;20045;-80
2023/07/15 00:58:47;;;;;;;10.20;5.82;;;;;;;;;;5006276;28;20116;-81
2023/07/15 01:01:12;;;;;;;9.55;5.90;;;;;;;;;;5006459;28;20059;-81
2023/07/15 01:03:40;;;;;;;7.65;5.55;;;;;;;;;;5022577;28;20411;-82
2023/07/15 01:06:08;;;;;;;8.27;5.60;;;;;;;;;;5022646;28;20045;-81
2023/07/15 01:08:33;;;;;;;7.30;5.88;;;;;;;;;;5038803;28;20022;-80
2023/07/15 01:10:59;;;;;;;8.07;6.30;;;;;;;;;;5039088;28;20433;-82
2023/07/15 01:13:24;;;;;;;11.75;6.28;;;;;;;;;;5022545;28;20045;-80
2023/07/15 01:15:50;;;;;;;10.15;6.28;;;;;;;;;;5038812;28;20033;-81
2023/07/15 01:18:16;;;;;;;7.28;6.10;;;;;;;;;;5038936;28;20029;-81
2023/07/15 01:20:42;;;;;;;9.55;6.10;;;;;;;;;;5022540;28;20037;-81
2023/07/15 01:23:07;;;;;;;8.60;5.75;;;;;;;;;;5038831;28;20103;-81
2023/07/15 01:25:33;;;;;;;11.40;6.35;;;;;;;;;;5038852;28;20067;-82
2023/07/15 01:27:58;;;;;;;9.27;5.80;;;;;;;;;;5034968;28;20120;-80
2023/07/15 01:30:25;;;;;;;10.73;6.07;;;;;;;;;;5035344;28;20075;-81
2023/07/15 01:32:50;;;;;;;10.00;6.13;;;;;;;;;;5035530;28;20033;-81
2023/07/15 01:35:15;;;;;;;8.73;6.03;;;;;;;;;;5018945;28;20026;-80
2023/07/15 01:37:41;;;;;;;6.88;6.18;;;;;;;;;;5035458;28;20029;-80
2023/07/15 01:40:09;;;;;;;7.05;6.13;;;;;;;;;;5018591;28;20052;-81
2023/07/15 01:42:34;;;;;;;8.73;6.07;;;;;;;;;;5036486;28;20072;-80
2023/07/15 01:45:00;;;;;;;7.15;6.30;;;;;;;;;;5035432;28;20021;-81
2023/07/15 01:47:25;;;;;;;8.60;6.10;;;;;;;;;;5035358;28;20021;-81
2023/07/15 01:49:51;;;;;;;8.63;5.80;;;;;;;;;;5036349;28;20017;-81
2023/07/15 01:52:16;;;;;;;15.77;5.82;;;;;;;;;;5036562;28;20056;-81
2023/07/15 01:54:42;;;;;;;11.00;6.40;;;;;;;;;;5034902;28;20032;-80
2023/07/15 01:57:07;;;;;;;9.05;6.07;;;;;;;;;;5036612;28;20033;-81
2023/07/15 01:59:33;;;;;;;8.02;5.97;;;;;;;;;;5034943;28;20445;-80
2023/07/15 02:01:59;;;;;;;10.75;6.25;;;;;;;;;;5035016;28;20021;-81
2023/07/15 02:04:24;;;;;;;10.07;5.78;;;;;;;;;;5036108;28;20025;-81
2023/07/15 02:06:50;;;;;;;7.22;6.07;;;;;;;;;;5055195;28;20052;-81
2023/07/15 02:09:16;;;;;;;7.90;6.60;;;;;;;;;;5055870;28;20071;-82
2023/07/15 02:11:41;;;;;;;9.57;6.65;;;;;;;;;;5021585;28;20056;-81
2023/07/15 02:14:08;;;;;;;11.50;6.68;;;;;;;;;;5038096;28;20024;-82
2023/07/15 02:16:34;;;;;;;9.07;6.18;;;;;;;;;;5056095;28;20032;-81
2023/07/15 02:18:59;;;;;;;10.93;6.38;;;;;;;;;;5038243;28;20530;-82
2023/07/15 02:21:25;;;;;;;9.10;6.30;;;;;;;;;;5021084;28;20075;-81
2023/07/15 02:23:53;;;;;;;10.30;6.60;;;;;;;;;;5055431;28;20040;-81
2023/07/15 02:26:19;;;;;;;8.98;6.75;;;;;;;;;;5037879;28;20440;-81
2023/07/15 02:28:45;;;;;;;6.85;6.15;;;;;;;;;;5005318;28;20036;-82
2023/07/15 02:31:10;;;;;;;9.93;6.18;;;;;;;;;;5055490;28;20029;-82
2023/07/15 02:33:36;;;;;;;6.22;5.50;;;;;;;;;;5037725;28;20067;-83
2023/07/15 02:36:04;;;;;;;10.02;6.22;;;;;;;;;;5037925;28;20029;-82
2023/07/15 02:38:29;;;;;;;8.52;6.13;;;;;;;;;;5037006;28;20040;-82
2023/07/15 02:40:55;;;;;;;10.70;6.13;;;;;;;;;;5037610;28;20021;-82
2023/07/15 02:43:20;;;;;;;6.95;5.63;;;;;;;;;;5037227;28;20037;-82
2023/07/15 02:45:48;;;;;;;6.90;5.38;;;;;;;;;;5037554;28;20029;-82
2023/07/15 02:48:13;;;;;;;7.95;5.78;;;;;;;;;;5004828;28;20144;-81
2023/07/15 02:50:39;;;;;;;8.57;5.53;;;;;;;;;;5055160;28;20104;-82
2023/07/15 02:53:05;;;;;;;7.03;5.63;;;;;;;;;;5037020;28;20376;-82
2023/07/15 02:55:31;;;;;;;6.90;5.93;;;;;;;;;;5037455;28;20029;-82
2023/07/15 02:57:56;;;;;;;7.53;5.53;;;;;;;;;;5055046;28;20039;-82
2023/07/15 03:00:22;;;;;;;6.45;5.47;;;;;;;;;;5037243;28;20032;-82
2023/07/15 03:02:48;;;;;;;9.73;6.10;;;;;;;;;;5037167;28;20036;-82
2023/07/15 03:05:14;;;;;;;5.47;4.97;;;;;;;;;;5037244;28;20051;-82
2023/07/15 03:07:44;;;;;;;6.85;5.63;;;;;;;;;;5037231;28;20032;-82
2023/07/15 03:10:13;;;;;;;9.32;5.70;;;;;;;;;;5054773;28;20035;-82
2023/07/15 03:12:39;;;;;;;6.28;4.97;;;;;;;;;;5036951;28;20087;-82
2023/07/15 03:15:05;;;;;;;7.80;5.28;;;;;;;;;;5020451;28;20356;-81
2023/07/15 03:17:35;;;;;;;7.80;5.13;;;;;;;;;;5004437;28;20447;-81
2023/07/15 03:20:04;;;;;;;8.07;5.35;;;;;;;;;;5021672;28;20048;-81
2023/07/15 03:22:30;;;;;;;6.07;5.15;;;;;;;;;;5004792;28;20040;-80
2023/07/15 03:24:55;;;;;;;6.80;5.60;;;;;;;;;;5036935;28;20025;-80
2023/07/15 03:27:21;;;;;;;9.00;5.47;;;;;;;;;;5020206;28;20368;-79
2023/07/15 03:29:49;;;;;;;9.23;5.60;;;;;;;;;;5054472;28;20028;-79
2023/07/15 03:32:14;;;;;;;6.65;5.40;;;;;;;;;;5054637;28;20032;-79
2023/07/15 03:34:39;;;;;;;8.23;5.25;;;;;;;;;;5054522;28;20119;-79
2023/07/15 03:37:05;;;;;;;6.53;5.45;;;;;;;;;;5019912;28;20079;-79
2023/07/15 03:39:30;;;;;;;9.02;5.63;;;;;;;;;;5003844;28;20040;-80
2023/07/15 03:41:56;;;;;;;6.82;5.68;;;;;;;;;;5020025;28;20456;-81
2023/07/15 03:44:21;;;;;;;9.43;5.47;;;;;;;;;;5036480;28;20029;-81
2023/07/15 03:46:47;;;;;;;8.95;5.82;;;;;;;;;;5019916;28;20464;-80
2023/07/15 03:49:12;;;;;;;9.32;5.43;;;;;;;;;;5036048;28;20379;-81
2023/07/15 03:51:38;;;;;;;10.93;5.95;;;;;;;;;;5019611;28;20029;-80
2023/07/15 03:54:05;;;;;;;8.43;5.50;;;;;;;;;;5020051;28;20021;-80
2023/07/15 03:56:31;;;;;;;9.52;5.55;;;;;;;;;;5019965;28;20127;-80
2023/07/15 03:58:57;;;;;;;8.25;5.85;;;;;;;;;;5054313;28;20112;-80
2023/07/15 04:01:22;;;;;;;6.80;5.43;;;;;;;;;;5053981;28;20028;-79
2023/07/15 04:03:48;;;;;;;6.25;5.20;;;;;;;;;;5019733;28;20029;-80
2023/07/15 04:06:14;;;;;;;8.57;5.60;;;;;;;;;;5035973;28;20049;-80
2023/07/15 04:08:39;;;;;;;7.57;5.25;;;;;;;;;;5003271;28;20044;-81
2023/07/15 04:11:06;;;;;;;5.95;5.38;;;;;;;;;;5036201;28;20025;-81
2023/07/15 04:13:32;;;;;;;11.93;6.15;;;;;;;;;;5003421;28;20483;-80
2023/07/15 04:15:58;;;;;;;6.75;5.70;;;;;;;;;;5019864;28;20061;-81
2023/07/15 04:18:23;;;;;;;6.72;5.93;;;;;;;;;;5035986;28;20036;-81
2023/07/15 04:20:49;;;;;;;8.18;5.82;;;;;;;;;;5019521;28;20462;-82
2023/07/15 04:23:14;;;;;;;12.65;5.95;;;;;;;;;;5036179;28;20025;-81
2023/07/15 04:25:40;;;;;;;11.35;6.10;;;;;;;;;;5053892;28;20025;-80
2023/07/15 04:28:05;;;;;;;10.52;6.53;;;;;;;;;;5053710;28;20123;-79
2023/07/15 04:30:31;;;;;;;12.73;6.75;;;;;;;;;;5019536;28;20372;-81
2023/07/15 04:32:56;;;;;;;9.15;6.47;;;;;;;;;;5052627;28;20411;-81
2023/07/15 04:35:22;;;;;;;10.15;6.72;;;;;;;;;;5019776;28;20363;-80
2023/07/15 04:37:47;;;;;;;11.50;6.90;;;;;;;;;;5019572;28;20033;-82
2023/07/15 04:40:12;;;;;;;9.15;7.05;;;;;;;;;;5019810;28;20029;-80
2023/07/15 04:42:38;;;;;;;8.82;6.75;;;;;;;;;;5003288;28;20029;-80
2023/07/15 04:45:04;;;;;;;8.48;6.57;;;;;;;;;;5019566;28;20032;-80
2023/07/15 04:47:29;;;;;;;8.77;6.80;;;;;;;;;;5035864;28;20424;-81
2023/07/15 04:49:55;;;;;;;7.95;6.78;;;;;;;;;;5019258;28;20094;-81
2023/07/15 04:52:20;;;;;;;11.57;7.18;;;;;;;;;;5053428;28;20032;-80
2023/07/15 04:54:45;;;;;;;9.90;7.50;;;;;;;;;;5035758;28;20036;-80
2023/07/15 04:57:12;;;;;;;9.45;7.00;;;;;;;;;;5053319;28;20091;-82
2023/07/15 04:59:37;;;;;;;8.93;7.63;;;;;;;;;;5019538;28;20063;-82
2023/07/15 05:02:02;;;;;;;9.20;7.32;;;;;;;;;;5038717;28;20036;-82
2023/07/15 05:04:28;;;;;;;10.20;6.93;;;;;;;;;;5022845;28;20024;-81
2023/07/15 05:06:53;;;;;;;13.40;7.38;;;;;;;;;;5022741;28;20059;-78
2023/07/15 05:09:19;;;;;;;11.82;7.15;;;;;;;;;;5039312;28;20048;-79
2023/07/15 05:11:44;;;;;;;9.55;6.55;;;;;;;;;;5057060;28;20044;-79
2023/07/15 05:14:09;;;;;;;8.30;6.43;;;;;;;;;;5039321;28;20366;-79
2023/07/15 05:16:35;;;;;;;16.20;7.28;;;;;;;;;;5057252;28;20437;-79
2023/07/15 05:19:01;;;;;;;8.93;7.43;;;;;;;;;;5039355;28;20033;-82
2023/07/15 05:21:26;;;;;;;8.95;7.22;;;;;;;;;;5039484;28;20032;-80
2023/07/15 05:23:52;;;;;;;12.85;7.18;;;;;;;;;;5057067;28;20404;-80
2023/07/15 05:26:17;;;;;;;11.98;7.28;;;;;;;;;;5039403;28;20033;-81
2023/07/15 05:28:42;;;;;;;11.85;6.97;;;;;;;;;;5039186;28;20423;-80
2023/07/15 05:31:08;;;;;;;9.23;6.75;;;;;;;;;;5056899;28;20032;-81
2023/07/15 05:33:33;;;;;;;7.60;6.15;;;;;;;;;;5039061;28;20494;-79
2023/07/15 05:35:59;;;;;;;13.98;6.25;;;;;;;;;;5056501;28;20087;-80
2023/07/15 05:38:25;;;;;;;7.78;5.95;;;;;;;;;;5056858;28;20384;-79
2023/07/15 05:40:51;;;;;;;9.80;6.50;;;;;;;;;;5038750;28;20368;-79
2023/07/15 05:43:18;;;;;;;11.63;5.97;;;;;;;;;;5056442;28;20063;-79
2023/07/15 05:45:44;;;;;;;7.35;6.40;;;;;;;;;;5038515;28;20160;-80
2023/07/15 05:48:09;;;;;;;8.15;6.20;;;;;;;;;;5006045;28;20128;-80
2023/07/15 05:50:37;;;;;;;9.77;6.03;;;;;;;;;;5005790;28;20029;-80
2023/07/15 05:53:05;;;;;;;12.60;6.70;;;;;;;;;;5022434;28;20048;-81
2023/07/15 05:55:34;;;;;;;12.30;5.75;;;;;;;;;;5022059;28;20123;-81
2023/07/15 05:58:01;;;;;;;7.03;5.55;;;;;;;;;;5022110;28;20033;-81
2023/07/15 06:00:27;;;;;;;9.48;5.80;;;;;;;;;;5022045;28;20035;-80
2023/07/15 06:02:52;;;;;;;7.60;5.90;;;;;;;;;;5038410;28;20029;-80
2023/07/15 06:05:17;;;;;;;10.15;6.07;;;;;;;;;;5021676;28;20095;-79
2023/07/15 06:07:43;;;;;;;7.95;6.03;;;;;;;;;;5038195;28;20086;-80
2023/07/15 06:10:08;;;;;;;7.07;6.15;;;;;;;;;;5038418;28;20453;-81
2023/07/15 06:12:34;;;;;;;9.25;5.82;;;;;;;;;;5021494;28;20036;-81
2023/07/15 06:14:59;;;;;;;6.05;5.40;;;;;;;;;;5038004;28;20047;-81
2023/07/15 06:17:25;;;;;;;6.50;4.95;;;;;;;;;;5038231;28;20464;-81
2023/07/15 06:19:50;;;;;;;10.52;5.38;;;;;;;;;;5038058;28;20033;-81
2023/07/15 06:22:15;;;;;;;7.65;5.25;;;;;;;;;;5021473;28;20037;-81
2023/07/15 06:24:41;;;;;;;8.50;5.57;;;;;;;;;;5038027;28;20467;-81
2023/07/15 06:27:06;;;;;;;6.93;5.68;;;;;;;;;;5056048;28;20032;-81
2023/07/15 06:29:32;;;;;;;10.55;5.40;;;;;;;;;;5037573;28;20364;-80
2023/07/15 06:31:57;;;;;;;7.97;5.85;;;;;;;;;;5038062;28;20024;-81
2023/07/15 06:34:23;;;;;;;5.60;5.10;;;;;;;;;;5037927;28;20025;-81
2023/07/15 06:36:48;;;;;;;8.68;5.13;;;;;;;;;;5037797;28;20388;-81
2023/07/15 06:39:14;;;;;;;9.30;6.00;;;;;;;;;;5021183;28;20441;-83
2023/07/15 06:41:39;;;;;;;7.60;5.95;;;;;;;;;;5037819;28;20120;-81
2023/07/15 06:44:05;;;;;;;12.43;5.75;;;;;;;;;;5055534;28;20048;-81
2023/07/15 06:46:30;;;;;;;12.48;6.43;;;;;;;;;;5037705;28;20040;-82
2023/07/15 06:48:55;;;;;;;6.80;5.60;;;;;;;;;;5021097;28;20094;-81
2023/07/15 06:51:22;;;;;;;7.35;5.65;;;;;;;;;;5037396;28;20132;-81
2023/07/15 06:53:48;;;;;;;8.30;5.43;;;;;;;;;;5021145;28;20069;-83
2023/07/15 06:56:13;;;;;;;5.70;5.07;;;;;;;;;;5020881;28;20060;-82
2023/07/15 06:58:39;;;;;;;12.18;5.30;;;;;;;;;;5020607;28;20419;-81
2023/07/15 07:01:04;;;;;;;7.55;5.47;;;;;;;;;;5037205;28;20048;-81
2023/07/15 07:03:30;;;;;;;6.07;5.47;;;;;;;;;;5020898;28;20364;-82
2023/07/15 07:05:56;;;;;;;8.35;5.93;;;;;;;;;;5054734;28;20484;-81
2023/07/15 07:08:22;;;;;;;7.40;5.90;;;;;;;;;;5036889;28;20037;-81
2023/07/15 07:10:51;;;;;;;8.00;5.65;;;;;;;;;;5004699;28;20040;-81
2023/07/15 07:13:17;;;;;;;6.35;5.72;;;;;;;;;;5037211;28;20334;-81
2023/07/15 07:15:42;;;;;;;7.78;6.10;;;;;;;;;;5054645;28;20107;-81
2023/07/15 07:18:08;;;;;;;8.82;6.13;;;;;;;;;;5004188;28;20037;-83
2023/07/15 07:20:33;;;;;;;7.35;6.03;;;;;;;;;;5003974;28;20120;-83
2023/07/15 07:22:58;;;;;;;7.80;5.95;;;;;;;;;;5037142;28;20033;-81
2023/07/15 07:25:24;;;;;;;6.75;5.85;;;;;;;;;;5035812;28;20036;-82
2023/07/15 07:27:49;;;;;;;14.75;6.30;;;;;;;;;;5036454;28;20025;-82
2023/07/15 07:30:15;;;;;;;9.80;6.78;;;;;;;;;;5054541;28;20035;-82
2023/07/15 07:32:40;;;;;;;11.02;6.00;;;;;;;;;;5036784;28;20033;-82
2023/07/15 07:35:06;;;;;;;12.05;6.32;;;;;;;;;;5054479;28;20040;-82
2023/07/15 07:37:31;;;;;;;9.00;6.50;;;;;;;;;;5054700;28;20035;-83
2023/07/15 07:39:57;;;;;;;10.85;6.38;;;;;;;;;;5020283;28;20061;-83
2023/07/15 07:42:22;;;;;;;11.13;7.15;;;;;;;;;;5036247;28;20424;-83
2023/07/15 07:44:48;;;;;;;13.35;6.90;;;;;;;;;;5020152;28;20032;-82
2023/07/15 07:47:13;;;;;;;8.23;6.85;;;;;;;;;;5036441;28;20460;-82
2023/07/15 07:49:39;;;;;;;10.65;6.30;;;;;;;;;;5036434;28;20084;-83
2023/07/15 07:52:04;;;;;;;6.88;6.05;;;;;;;;;;5053995;28;20029;-83
2023/07/15 07:54:30;;;;;;;11.93;6.43;;;;;;;;;;5036802;28;20025;-80
2023/07/15 07:56:55;;;;;;;10.18;6.85;;;;;;;;;;5053866;28;20142;-83
2023/07/15 07:59:20;;;;;;;7.05;6.38;;;;;;;;;;5019682;28;20060;-82
2023/07/15 08:01:46;;;;;;;12.82;6.97;;;;;;;;;;5054177;28;20581;-82
2023/07/15 08:04:11;;;;;;;9.88;6.00;;;;;;;;;;5036380;28;20094;-83
2023/07/15 08:06:37;;;;;;;13.88;6.00;;;;;;;;;;5035899;28;20068;-82
2023/07/15 08:09:02;;;;;;;8.30;5.90;;;;;;;;;;5052519;28;20119;-80
2023/07/15 08:11:28;;;;;;;6.88;5.85;;;;;;;;;;5053527;28;20116;-79
2023/07/15 08:13:53;;;;;;;8.00;6.40;;;;;;;;;;5036277;28;20219;-81
2023/07/15 08:16:39;;;;;;;12.20;6.00;;;;;;;;;;5036334;28;20029;-81
2023/07/15 08:19:05;;;;;;;7.70;5.68;;;;;;;;;;5035698;28;20476;-81
2023/07/15 08:21:31;;;;;;;9.25;6.25;;;;;;;;;;5019537;28;20048;-81
2023/07/15 08:23:57;;;;;;;9.20;6.20;;;;;;;;;;5036081;28;20059;-82
2023/07/15 08:26:22;;;;;;;8.27;5.57;;;;;;;;;;5019215;28;20201;-82
2023/07/15 08:28:48;;;;;;;7.88;6.30;;;;;;;;;;5019348;28;20029;-80
2023/07/15 08:31:13;;;;;;;6.57;5.95;;;;;;;;;;5035936;28;20029;-81
2023/07/15 08:33:38;;;;;;;8.65;6.32;;;;;;;;;;5036058;28;20075;-81
2023/07/15 08:36:04;;;;;;;8.13;5.95;;;;;;;;;;5021646;28;20067;-81
2023/07/15 08:38:30;;;;;;;8.10;6.03;;;;;;;;;;5023598;28;20037;-83
2023/07/15 08:40:58;;;;;;;9.82;6.22;;;;;;;;;;5023456;28;20514;-81
2023/07/15 08:43:24;;;;;;;8.85;6.28;;;;;;;;;;5040186;28;20405;-80
2023/07/15 08:45:49;;;;;;;12.23;5.82;;;;;;;;;;5007252;28;20040;-82
2023/07/15 08:48:14;;;;;;;8.45;5.93;;;;;;;;;;5006792;28;20044;-81
2023/07/15 08:50:40;;;;;;;11.52;5.85;;;;;;;;;;5022926;28;20025;-80
2023/07/15 08:53:05;;;;;;;10.23;6.28;;;;;;;;;;5006954;28;20443;-81
2023/07/15 08:55:31;;;;;;;10.27;6.45;;;;;;;;;;5023188;28;20024;-80
2023/07/15 08:57:59;;;;;;;14.32;6.07;;;;;;;;;;5023350;28;20029;-81
2023/07/15 09:00:25;;;;;;;13.07;6.10;;;;;;;;;;5023229;28;20029;-81
2023/07/15 09:02:51;;;;;;;8.77;6.28;;;;;;;;;;5039774;28;20124;-81
2023/07/15 09:05:17;;;;;;;11.75;6.30;;;;;;;;;;5006843;28;20045;-81
2023/07/15 09:07:54;;;;;;;7.47;6.55;;;;;;;;;;5022887;28;20033;-81
2023/07/15 09:10:19;;;;;;;7.22;6.53;;;;;;;;;;5022657;28;20032;-80
2023/07/15 09:12:51;;;;;;;10.40;6.22;;;;;;;;;;5022955;28;20037;-80
2023/07/15 09:15:16;;;;;;;6.85;5.93;;;;;;;;;;5023528;28;20514;-81
2023/07/15 09:17:51;;;;;;;9.07;6.00;;;;;;;;;;5056997;28;20020;-81
2023/07/15 09:20:17;;;;;;;7.57;6.03;;;;;;;;;;5023004;28;20033;-81
2023/07/15 09:22:42;;;;;;;8.88;5.90;;;;;;;;;;5023046;28;20372;-82
2023/07/15 09:25:10;;;;;;;15.65;6.30;;;;;;;;;;5039034;28;20029;-81
2023/07/15 09:27:40;;;;;;;10.15;6.47;;;;;;;;;;5023021;28;20127;-82
2023/07/15 09:30:09;;;;;;;11.15;6.22;;;;;;;;;;5056930;28;20025;-81
2023/07/15 09:32:34;;;;;;;8.88;5.97;;;;;;;;;;5039005;28;20047;-81
2023/07/15 09:35:00;;;;;;;10.48;6.05;;;;;;;;;;5056597;28;20455;-81
2023/07/15 09:37:32;;;;;;;12.68;6.10;;;;;;;;;;5006002;28;20025;-81
2023/07/15 09:40:04;;;;;;;9.05;6.28;;;;;;;;;;5006423;28;20036;-81
2023/07/15 09:42:29;;;;;;;10.55;6.30;;;;;;;;;;5039303;28;20443;-81
2023/07/15 09:44:55;;;;;;;7.68;5.88;;;;;;;;;;5039092;28;20046;-83
2023/07/15 09:47:20;;;;;;;6.68;5.90;;;;;;;;;;5021110;28;20033;-82
2023/07/15 09:49:46;;;;;;;6.10;5.38;;;;;;;;;;5022186;28;20044;-82
2023/07/15 09:52:11;;;;;;;7.25;5.60;;;;;;;;;;5021749;28;20031;-83
2023/07/15 09:54:37;;;;;;;14.35;6.20;;;;;;;;;;5038691;28;20395;-83
2023/07/15 09:57:03;;;;;;;12.32;5.78;;;;;;;;;;5006304;28;20025;-82
2023/07/15 09:59:31;;;;;;;5.90;5.38;;;;;;;;;;5042505;28;20452;-81
2023/07/15 10:01:58;;;;;;;;;;;;;;;;;;5023572;28;20025;-83
2023/07/15 10:04:35;;;;;;;9.32;5.85;;;;;;;;;;5039252;28;19931;-83
2023/07/15 10:07:01;;;;;;;12.80;5.38;;;;;;;;;;5007103;28;20487;-83
2023/07/15 10:09:27;;;;;;;8.27;5.20;;;;;;;;;;5076257;28;20051;-81
2023/07/15 10:11:54;;;;;;;7.68;5.07;;;;;;;;;;5045875;28;20036;-84
2023/07/15 10:14:20;;;;;;;7.07;4.90;;;;;;;;;;5023569;28;20091;-82
2023/07/15 10:16:46;;;;;;;7.85;5.15;;;;;;;;;;5032510;28;20029;-82
2023/07/15 10:19:42;;;;;;;7.93;5.07;;;;;;;;;;5024469;28;20375;-82
2023/07/15 10:22:10;;;;;;;8.70;4.88;;;;;;;;;;5038471;28;20065;-82
2023/07/15 10:24:36;;;;;;;5.68;5.00;;;;;;;;;;5021956;28;20033;-82
2023/07/15 10:27:03;;;;;;;7.57;4.80;;;;;;;;;;5056330;28;20409;-83
2023/07/15 10:29:31;;;;;;;5.78;4.90;;;;;;;;;;5038420;28;20041;-82
2023/07/15 10:32:12;;;;;;;;;;;;;;;;;;5038605;28;20036;-82
2023/07/15 10:34:49;;;;;;;7.65;4.93;;;;;;;;;;5022403;28;19912;-83
2023/07/15 10:37:15;;;;;;;7.32;5.05;;;;;;;;;;5022669;28;20060;-83
2023/07/15 10:39:40;;;;;;;7.32;5.25;;;;;;;;;;5023477;28;20446;-82
2023/07/15 10:42:16;;;;;;;7.82;5.20;;;;;;;;;;5046859;28;20123;-80
2023/07/15 10:44:44;;;;;;;10.48;5.10;;;;;;;;;;5032276;28;20025;-80
2023/07/15 10:47:10;;;;;;;9.85;5.18;;;;;;;;;;5016452;28;20033;-82
2023/07/15 10:49:36;;;;;;;8.63;5.28;;;;;;;;;;5046362;28;20102;-80
2023/07/15 10:52:05;;;;;;;6.90;5.47;;;;;;;;;;5046116;28;20040;-79
2023/07/15 10:54:34;;;;;;;7.85;4.90;;;;;;;;;;5055588;28;20376;-81
2023/07/15 10:57:09;;;;;;;8.40;4.88;;;;;;;;;;5007340;28;20041;-81
2023/07/15 10:59:36;;;;;;;9.60;5.30;;;;;;;;;;5020631;28;20036;-81
2023/07/15 11:02:01;;;;;;;6.80;4.97;;;;;;;;;;5021540;28;20029;-81
2023/07/15 11:04:27;;;;;;;12.95;5.18;;;;;;;;;;5037145;28;20025;-82
2023/07/15 11:06:54;;;;;;;7.13;4.88;;;;;;;;;;5020739;28;20049;-81
2023/07/15 11:09:20;;;;;;;6.13;4.72;;;;;;;;;;5004737;28;20087;-80
2023/07/15 11:11:46;;;;;;;7.15;5.20;;;;;;;;;;5020669;28;20040;-82
2023/07/15 11:14:32;;;;;;;7.68;5.20;;;;;;;;;;5020512;28;20025;-82
2023/07/15 11:16:59;;;;;;;11.13;5.05;;;;;;;;;;5054537;28;20037;-81
2023/07/15 11:19:28;;;;;;;6.97;5.20;;;;;;;;;;5019947;28;20029;-81
2023/07/15 11:21:58;;;;;;;7.03;4.95;;;;;;;;;;5021506;28;20059;-82
2023/07/15 11:24:30;;;;;;;8.57;4.93;;;;;;;;;;5020305;28;20039;-82
2023/07/15 11:26:58;;;;;;;8.48;4.80;;;;;;;;;;5037343;28;20028;-83
2023/07/15 11:29:24;;;;;;;4.93;4.40;;;;;;;;;;5020649;28;20104;-82
2023/07/15 11:31:54;;;;;;;5.80;4.40;;;;;;;;;;5036668;28;20533;-83
2023/07/15 11:34:26;;;;;;;8.77;4.55;;;;;;;;;;5019863;28;20175;-81
2023/07/15 11:36:53;;;;;;;5.80;4.65;;;;;;;;;;5003693;28;20115;-80
2023/07/15 11:39:19;;;;;;;6.88;5.10;;;;;;;;;;5036885;28;20037;-82
2023/07/15 11:41:44;;;;;;;9.38;5.00;;;;;;;;;;5020177;28;20171;-83
2023/07/15 11:44:19;;;;;;;8.95;5.10;;;;;;;;;;5036635;28;20033;-81
2023/07/15 11:46:45;;;;;;;12.77;5.03;;;;;;;;;;5054147;28;20041;-82
2023/07/15 11:49:10;;;;;;;6.55;4.85;;;;;;;;;;5003497;28;20037;-82
2023/07/15 11:51:37;;;;;;;7.32;4.97;;;;;;;;;;5019882;28;20486;-82
2023/07/15 11:54:08;;;;;;;8.30;4.82;;;;;;;;;;5019798;28;20025;-81
2023/07/15 11:56:35;;;;;;;10.07;5.25;;;;;;;;;;5036330;28;20471;-81
2023/07/15 11:59:00;;;;;;;9.57;4.80;;;;;;;;;;5019805;28;20062;-82
2023/07/15 12:01:26;;;;;;;7.75;4.60;;;;;;;;;;5003225;28;20464;-81
2023/07/15 12:03:52;;;;;;;7.75;4.65;;;;;;;;;;5019735;28;20029;-81
2023/07/15 12:06:25;;;;;;;7.40;4.72;;;;;;;;;;5036227;28;20045;-83
2023/07/15 12:09:19;;;;;;;7.07;4.88;;;;;;;;;;5020516;28;20106;-81
2023/07/15 12:11:45;;;;;;;5.78;4.53;;;;;;;;;;5038514;28;20029;-82
2023/07/15 12:14:11;;;;;;;6.43;5.40;;;;;;;;;;5003412;28;20035;-81
2023/07/15 12:16:37;;;;;;;9.60;4.68;;;;;;;;;;5019906;28;20522;-80
2023/07/15 12:19:03;;;;;;;7.35;5.13;;;;;;;;;;5003160;28;20029;-80
2023/07/15 12:21:29;;;;;;;8.15;4.90;;;;;;;;;;5019942;28;20029;-81
2023/07/15 12:23:55;;;;;;;10.23;4.75;;;;;;;;;;5036130;28;20021;-82
2023/07/15 12:26:21;;;;;;;5.82;4.45;;;;;;;;;;5019587;28;20063;-82
2023/07/15 12:28:46;;;;;;;5.25;4.43;;;;;;;;;;5003058;28;20416;-83
2023/07/15 12:31:13;;;;;;;7.43;4.78;;;;;;;;;;5036190;28;20024;-81
2023/07/15 12:33:38;;;;;;;7.72;4.50;;;;;;;;;;5036020;28;20108;-82
2023/07/15 12:36:04;;;;;;;6.72;4.38;;;;;;;;;;5035922;28;20167;-81
2023/07/15 12:38:29;;;;;;;10.57;4.70;;;;;;;;;;5035644;28;20020;-81
2023/07/15 12:40:56;;;;;;;10.20;4.90;;;;;;;;;;5035964;28;20131;-81
2023/07/15 12:43:23;;;;;;;5.10;4.63;;;;;;;;;;5019915;28;20435;-81
2023/07/15 12:45:52;;;;;;;10.82;4.75;;;;;;;;;;5019510;28;20036;-81
2023/07/15 12:48:17;;;;;;;6.25;4.40;;;;;;;;;;5036461;28;20371;-81
2023/07/15 12:50:42;;;;;;;12.48;4.53;;;;;;;;;;5019280;28;20120;-81
2023/07/15 12:53:08;;;;;;;7.80;4.97;;;;;;;;;;5019204;28;20028;-81
2023/07/15 12:55:33;;;;;;;9.13;4.97;;;;;;;;;;5018837;28;20040;-81
2023/07/15 12:58:00;;;;;;;8.05;4.50;;;;;;;;;;5019248;28;20025;-80
2023/07/15 13:00:26;;;;;;;9.05;4.65;;;;;;;;;;5018792;28;20115;-80
2023/07/15 13:02:51;;;;;;;8.15;4.90;;;;;;;;;;5035448;28;20184;-80
2023/07/15 13:05:16;;;;;;;5.35;4.55;;;;;;;;;;5035651;28;20392;-81
2023/07/15 13:07:42;;;;;;;7.85;4.60;;;;;;;;;;5035604;28;20087;-81
2023/07/15 13:10:07;;;;;;;8.63;4.80;;;;;;;;;;5019085;28;20427;-82
2023/07/15 13:12:33;;;;;;;11.57;4.80;;;;;;;;;;5019145;28;20332;-81
2023/07/15 13:14:58;;;;;;;8.00;4.70;;;;;;;;;;5035221;28;20570;-80
2023/07/15 13:17:24;;;;;;;17.63;5.45;;;;;;;;;;5018905;28;20029;-81
2023/07/15 13:19:50;;;;;;;7.40;5.20;;;;;;;;;;5035330;28;20033;-81
2023/07/15 13:22:16;;;;;;;8.13;5.00;;;;;;;;;;5054644;28;20392;-81
2023/07/15 13:24:41;;;;;;;6.00;4.60;;;;;;;;;;5039111;28;20040;-81
2023/07/15 13:27:06;;;;;;;9.85;4.53;;;;;;;;;;5039175;28;20040;-83
2023/07/15 13:29:32;;;;;;;8.38;4.60;;;;;;;;;;5038778;28;20033;-82
2023/07/15 13:31:57;;;;;;;8.88;4.78;;;;;;;;;;5056663;28;20032;-83
2023/07/15 13:34:23;;;;;;;6.25;4.97;;;;;;;;;;5022762;28;20112;-82
2023/07/15 13:36:49;;;;;;;10.38;4.78;;;;;;;;;;5038842;28;20100;-81
2023/07/15 13:39:36;;;;;;;7.65;4.60;;;;;;;;;;5022119;28;20037;-81
2023/07/15 13:42:04;;;;;;;7.00;4.70;;;;;;;;;;5038634;28;20035;-81
2023/07/15 13:44:30;;;;;;;7.05;5.00;;;;;;;;;;5038619;28;20444;-80
2023/07/15 13:46:56;;;;;;;8.63;4.90;;;;;;;;;;5039035;28;20027;-81
2023/07/15 13:49:21;;;;;;;6.53;4.70;;;;;;;;;;5056326;28;20349;-81
2023/07/15 13:51:46;;;;;;;11.25;5.15;;;;;;;;;;5056309;28;20434;-81
2023/07/15 13:54:12;;;;;;;6.07;4.88;;;;;;;;;;5038576;28;20036;-81
2023/07/15 13:56:38;;;;;;;8.68;5.03;;;;;;;;;;5056165;28;20036;-81
2023/07/15 13:59:03;;;;;;;11.63;5.13;;;;;;;;;;5038410;28;20456;-81
2023/07/15 14:01:28;;;;;;;22.60;5.20;;;;;;;;;;5056079;28;20052;-81
2023/07/15 14:03:54;;;;;;;10.02;5.05;;;;;;;;;;5038209;28;20025;-80
2023/07/15 14:06:20;;;;;;;7.97;5.13;;;;;;;;;;5018395;28;20046;-81
2023/07/15 14:08:45;;;;;;;7.35;4.85;;;;;;;;;;5034891;28;20064;-80
2023/07/15 14:11:11;;;;;;;6.30;4.63;;;;;;;;;;5018712;28;20045;-81
2023/07/15 14:13:36;;;;;;;6.28;4.68;;;;;;;;;;5035878;28;20120;-82
2023/07/15 14:16:03;;;;;;;11.60;5.25;;;;;;;;;;5034644;28;20040;-80
2023/07/15 14:18:28;;;;;;;9.05;4.93;;;;;;;;;;5035141;28;20365;-81
2023/07/15 14:20:54;;;;;;;9.18;5.15;;;;;;;;;;5017981;28;20029;-81
2023/07/15 14:23:19;;;;;;;7.22;4.97;;;;;;;;;;5001653;28;20037;-80
2023/07/15 14:25:44;;;;;;;9.00;4.80;;;;;;;;;;5034654;28;20029;-80
2023/07/15 14:28:10;;;;;;;15.02;4.93;;;;;;;;;;5017948;28;20084;-81
2023/07/15 14:30:36;;;;;;;8.65;5.32;;;;;;;;;;5034890;28;20029;-81
2023/07/15 14:33:01;;;;;;;5.60;4.78;;;;;;;;;;5034056;28;20038;-80
2023/07/15 14:35:26;;;;;;;5.10;4.60;;;;;;;;;;5034417;28;20029;-80
2023/07/15 14:37:52;;;;;;;9.18;5.03;;;;;;;;;;5035406;28;20441;-80